Time;durP1;ratioP1;P1;durP2;ratioP2;P2;SDS_P1;SDS_P2;PMS_P1;PMS_P2;Temp;Humidity;BMP_temperature;BMP_pressure;BME280_temperature;BME280_humidity;BME280_pressure;Samples;Min_cycle;Max_cycle;Signal;HPM_P1;HPM_P2
2022/05/15 00:02:32;;;;;;;26.30;6.53;;;9.90;99.90;;;;;;5103541;28;20063;-76
2022/05/15 00:04:58;;;;;;;24.05;6.45;;;9.90;99.90;;;;;;5108751;28;20442;-76
2022/05/15 00:07:24;;;;;;;33.60;7.22;;;9.90;99.90;;;;;;5099240;28;20428;-76
2022/05/15 00:09:49;;;;;;;29.13;6.70;;;9.90;99.90;;;;;;5092906;28;20055;-76
2022/05/15 00:12:16;;;;;;;31.80;6.75;;;9.90;99.90;;;;;;5099026;28;20040;-76
2022/05/15 00:14:42;;;;;;;37.08;8.07;;;9.80;99.90;;;;;;5097130;28;20044;-76
2022/05/15 00:17:08;;;;;;;26.48;7.00;;;9.90;99.90;;;;;;5106965;28;20146;-76
2022/05/15 00:19:34;;;;;;;33.45;7.70;;;9.80;99.90;;;;;;5081423;28;20024;-76
2022/05/15 00:22:00;;;;;;;38.35;7.63;;;9.90;99.90;;;;;;5078374;28;20134;-76
2022/05/15 00:24:28;;;;;;;40.10;8.35;;;9.90;99.90;;;;;;5077646;28;20044;-76
2022/05/15 00:26:55;;;;;;;43.67;8.13;;;9.90;99.90;;;;;;5078216;28;20185;-76
2022/05/15 00:29:20;;;;;;;39.55;7.70;;;9.90;99.90;;;;;;5092853;28;20043;-76
2022/05/15 00:31:46;;;;;;;28.95;7.60;;;9.80;99.90;;;;;;5095542;28;20043;-76
2022/05/15 00:34:12;;;;;;;31.33;7.43;;;9.80;99.90;;;;;;5121466;28;20079;-77
2022/05/15 00:36:40;;;;;;;31.52;8.13;;;9.80;99.90;;;;;;5100078;28;20423;-77
2022/05/15 00:39:07;;;;;;;32.38;8.40;;;9.80;99.90;;;;;;5101356;28;20048;-77
2022/05/15 00:41:34;;;;;;;39.05;8.82;;;9.70;99.90;;;;;;5097959;28;20047;-76
2022/05/15 00:44:01;;;;;;;33.35;8.10;;;9.70;99.90;;;;;;5082789;28;20406;-75
2022/05/15 00:46:36;;;;;;;37.13;8.95;;;9.70;99.90;;;;;;5093526;28;20065;-73
2022/05/15 00:49:05;;;;;;;32.42;7.43;;;9.70;99.90;;;;;;5104091;28;20538;-76
2022/05/15 00:51:55;;;;;;;42.28;8.65;;;9.70;99.90;;;;;;5098533;28;21776;-77
2022/05/15 00:54:45;;;;;;;36.22;8.13;;;9.60;99.90;;;;;;5085065;28;20089;-76
2022/05/15 00:57:22;;;;;;;38.20;9.13;;;9.60;99.90;;;;;;5095309;28;20498;-76
2022/05/15 01:00:09;;;;;;;42.15;9.45;;;9.60;99.90;;;;;;5103403;28;20052;-76
2022/05/15 01:02:38;;;;;;;35.83;9.27;;;9.60;99.90;;;;;;5075779;28;20523;-77
2022/05/15 01:05:05;;;;;;;36.35;8.65;;;9.70;99.90;;;;;;5089750;28;20137;-77
2022/05/15 01:07:31;;;;;;;35.97;9.30;;;9.60;99.90;;;;;;5088554;28;20035;-76
2022/05/15 01:09:58;;;;;;;38.67;9.02;;;9.60;99.90;;;;;;5077863;28;20047;-76
2022/05/15 01:12:24;;;;;;;35.60;8.43;;;9.50;99.90;;;;;;5081935;28;20124;-75
2022/05/15 01:14:50;;;;;;;36.17;8.80;;;9.50;99.90;;;;;;5075027;28;20451;-75
2022/05/15 01:17:16;;;;;;;38.60;8.98;;;9.50;99.90;;;;;;5091684;28;20044;-76
2022/05/15 01:19:43;;;;;;;35.33;8.65;;;9.40;99.90;;;;;;5117992;27;20486;-77
2022/05/15 01:22:11;;;;;;;44.10;9.68;;;9.40;99.90;;;;;;5076249;28;20163;-76
2022/05/15 01:24:37;;;;;;;39.53;8.90;;;9.40;99.90;;;;;;5085719;28;20039;-76
2022/05/15 01:27:07;;;;;;;35.42;8.20;;;9.40;99.90;;;;;;5098589;28;20362;-76
2022/05/15 01:29:37;;;;;;;28.67;7.82;;;9.30;99.90;;;;;;5076372;28;20089;-77
2022/05/15 01:32:04;;;;;;;33.50;8.77;;;9.30;99.90;;;;;;5096705;28;20479;-76
2022/05/15 01:34:30;;;;;;;38.72;8.25;;;9.20;99.90;;;;;;5102233;28;20031;-76
2022/05/15 01:36:55;;;;;;;39.00;7.88;;;9.30;99.90;;;;;;5082593;28;20093;-76
2022/05/15 01:39:21;;;;;;;29.40;7.90;;;9.20;99.90;;;;;;5104250;28;20043;-77
2022/05/15 01:41:47;;;;;;;37.15;8.40;;;9.20;99.90;;;;;;5095867;28;20053;-77
2022/05/15 01:44:13;;;;;;;30.63;7.97;;;9.10;99.90;;;;;;5099163;28;20508;-79
2022/05/15 01:46:39;;;;;;;33.03;8.38;;;9.00;99.90;;;;;;5101642;28;20417;-76
2022/05/15 01:49:06;;;;;;;39.55;8.10;;;9.00;99.90;;;;;;5093517;28;20039;-77
2022/05/15 01:51:34;;;;;;;33.45;7.88;;;8.90;99.90;;;;;;5095799;28;20044;-76
2022/05/15 01:54:01;;;;;;;30.65;7.57;;;8.90;99.90;;;;;;5091061;28;20044;-76
2022/05/15 01:56:28;;;;;;;29.20;7.38;;;9.00;99.90;;;;;;5095674;28;20040;-76
2022/05/15 01:58:54;;;;;;;35.10;8.40;;;8.90;99.90;;;;;;5092792;28;20048;-76
2022/05/15 02:01:19;;;;;;;34.90;7.55;;;8.90;99.90;;;;;;5080415;28;20032;-77
2022/05/15 02:03:45;;;;;;;34.78;8.27;;;8.90;99.90;;;;;;5075882;28;20447;-77
2022/05/15 02:06:11;;;;;;;28.60;7.13;;;8.80;99.90;;;;;;5094703;28;20503;-77
2022/05/15 02:08:37;;;;;;;25.05;7.22;;;8.80;99.90;;;;;;5084725;28;20363;-76
2022/05/15 02:11:04;;;;;;;31.70;7.28;;;8.80;99.90;;;;;;5085605;28;20036;-74
2022/05/15 02:13:30;;;;;;;39.05;8.27;;;8.90;99.90;;;;;;5106714;28;20062;-74
2022/05/15 02:15:56;;;;;;;31.75;8.35;;;8.80;99.90;;;;;;5083437;28;20040;-76
2022/05/15 02:18:21;;;;;;;35.13;8.65;;;8.90;99.90;;;;;;5079478;28;20035;-77
2022/05/15 02:20:47;;;;;;;26.85;7.68;;;9.00;99.90;;;;;;5099675;28;20032;-77
2022/05/15 02:23:13;;;;;;;32.35;7.70;;;8.90;99.90;;;;;;5095089;28;20028;-76
2022/05/15 02:25:40;;;;;;;23.05;7.13;;;8.80;99.90;;;;;;5103475;28;20070;-76
2022/05/15 02:28:07;;;;;;;29.23;7.97;;;8.80;99.90;;;;;;5085170;28;20048;-77
2022/05/15 02:30:33;;;;;;;30.02;8.20;;;8.70;99.90;;;;;;5099874;28;20126;-76
2022/05/15 02:32:59;;;;;;;33.03;7.68;;;8.80;99.90;;;;;;5106053;28;20111;-76
2022/05/15 02:35:25;;;;;;;31.75;8.55;;;8.80;99.90;;;;;;5106373;28;20069;-76
2022/05/15 02:37:51;;;;;;;29.70;7.85;;;8.70;99.90;;;;;;5085045;28;20044;-76
2022/05/15 02:40:20;;;;;;;34.05;8.40;;;8.60;99.90;;;;;;5101276;28;20034;-76
2022/05/15 02:42:46;;;;;;;32.10;7.47;;;8.60;99.90;;;;;;5076473;28;20052;-77
2022/05/15 02:45:12;;;;;;;44.00;8.82;;;8.50;99.90;;;;;;5098592;28;20504;-76
2022/05/15 02:47:39;;;;;;;33.45;8.73;;;8.50;99.90;;;;;;5093553;28;20119;-77
2022/05/15 02:52:49;;;;;;;33.53;8.53;;;8.60;99.90;;;;;;5106016;28;20154;-76
2022/05/15 02:55:15;;;;;;;38.60;8.15;;;8.60;99.90;;;;;;5087698;28;20143;-76
2022/05/15 02:57:42;;;;;;;28.67;8.05;;;8.50;99.90;;;;;;5089884;28;20030;-76
2022/05/15 03:00:10;;;;;;;28.92;7.68;;;8.70;99.90;;;;;;5091226;28;20059;-76
2022/05/15 03:02:40;;;;;;;38.75;8.52;;;8.50;99.90;;;;;;5103696;28;20051;-76
2022/05/15 03:05:07;;;;;;;30.70;7.80;;;8.50;99.90;;;;;;5084475;28;20040;-76
2022/05/15 03:07:34;;;;;;;28.38;8.00;;;8.50;99.90;;;;;;5089146;28;20104;-76
2022/05/15 03:10:00;;;;;;;34.15;7.78;;;8.50;99.90;;;;;;5075868;28;20047;-76
2022/05/15 03:12:26;;;;;;;31.85;8.02;;;8.40;99.90;;;;;;5079585;28;20042;-76
2022/05/15 03:14:52;;;;;;;33.67;8.07;;;8.40;99.90;;;;;;5071305;28;20071;-76
2022/05/15 03:17:18;;;;;;;34.15;8.05;;;8.40;99.90;;;;;;5090380;28;20479;-77
2022/05/15 03:19:44;;;;;;;24.52;7.22;;;8.30;99.90;;;;;;5092153;28;20043;-76
2022/05/15 03:22:17;;;;;;;30.20;8.15;;;8.30;99.90;;;;;;5099890;28;20039;-76
2022/05/15 03:24:43;;;;;;;33.25;7.80;;;8.30;99.90;;;;;;5101872;28;20166;-77
2022/05/15 03:27:09;;;;;;;25.75;7.05;;;8.70;99.90;;;;;;5097552;28;20554;-77
2022/05/15 03:29:34;;;;;;;37.10;8.13;;;8.30;99.90;;;;;;5073626;28;20096;-77
2022/05/15 03:32:00;;;;;;;35.78;7.22;;;8.40;99.90;;;;;;5084243;28;20106;-76
2022/05/15 03:34:25;;;;;;;31.65;7.47;;;8.30;99.90;;;;;;5093497;28;20047;-76
2022/05/15 03:36:52;;;;;;;36.92;7.70;;;8.70;99.90;;;;;;5079545;28;20601;-76
2022/05/15 03:39:36;;;;;;;28.05;6.85;;;8.20;99.90;;;;;;5107163;28;20048;-75
2022/05/15 03:42:02;;;;;;;33.00;7.63;;;8.20;99.90;;;;;;5102177;28;20047;-75
2022/05/15 03:44:28;;;;;;;25.58;7.47;;;8.20;99.90;;;;;;5101327;28;22215;-77
2022/05/15 03:46:54;;;;;;;29.98;7.18;;;8.20;99.90;;;;;;5090187;28;20052;-76
2022/05/15 03:49:20;;;;;;;27.88;6.65;;;8.60;99.90;;;;;;5090128;28;20032;-77
2022/05/15 03:51:45;;;;;;;34.10;7.43;;;8.20;99.90;;;;;;5091115;28;20089;-77
2022/05/15 03:54:11;;;;;;;32.85;6.55;;;8.20;99.90;;;;;;5072922;28;20052;-76
2022/05/15 03:56:50;;;;;;;27.33;6.93;;;8.30;99.90;;;;;;5091163;28;20040;-76
2022/05/15 03:59:19;;;;;;;35.17;8.00;;;8.40;99.90;;;;;;5093345;28;20048;-77
2022/05/15 04:01:45;;;;;;;34.75;7.10;;;8.40;99.90;;;;;;5097927;28;20563;-76
2022/05/15 04:04:11;;;;;;;29.52;6.65;;;8.40;99.90;;;;;;5088348;28;20130;-77
2022/05/15 04:06:37;;;;;;;28.67;6.45;;;8.40;99.90;;;;;;5096710;28;20040;-76
2022/05/15 04:09:03;;;;;;;26.73;6.20;;;8.50;99.90;;;;;;5072142;28;20124;-77
2022/05/15 04:11:29;;;;;;;25.52;7.15;;;8.50;99.90;;;;;;5087318;28;20047;-76
2022/05/15 04:13:54;;;;;;;24.40;6.40;;;8.60;99.90;;;;;;5075546;28;20051;-77
2022/05/15 04:16:20;;;;;;;30.27;7.30;;;8.50;99.90;;;;;;5073173;28;20140;-76
2022/05/15 04:18:46;;;;;;;28.88;6.70;;;8.70;99.90;;;;;;5090791;28;20104;-77
2022/05/15 04:21:12;;;;;;;40.38;7.63;;;8.60;99.90;;;;;;5082599;28;20048;-77
2022/05/15 04:23:38;;;;;;;26.15;6.63;;;8.90;99.90;;;;;;5101804;28;20043;-77
2022/05/15 04:26:04;;;;;;;28.70;6.35;;;8.70;99.90;;;;;;5096152;28;20112;-77
2022/05/15 04:28:30;;;;;;;32.25;6.78;;;8.80;99.90;;;;;;5088838;28;20055;-77
2022/05/15 04:30:55;;;;;;;30.70;6.72;;;9.00;99.90;;;;;;5077426;28;20063;-77
2022/05/15 04:33:21;;;;;;;37.85;7.80;;;8.90;99.90;;;;;;5075866;28;20040;-78
2022/05/15 04:35:47;;;;;;;36.13;7.53;;;9.00;99.90;;;;;;5097191;28;20386;-78
2022/05/15 04:38:15;;;;;;;41.55;9.13;;;9.00;99.90;;;;;;5077655;28;20328;-78
2022/05/15 04:40:42;;;;;;;39.53;7.85;;;9.00;99.90;;;;;;5081477;28;20493;-78
2022/05/15 04:43:08;;;;;;;37.35;7.40;;;9.20;99.90;;;;;;5077209;28;20043;-78
2022/05/15 04:45:34;;;;;;;42.92;8.70;;;9.40;99.90;;;;;;5106292;28;20054;-78
2022/05/15 04:47:59;;;;;;;39.85;8.43;;;9.40;99.90;;;;;;5096419;28;20035;-78
2022/05/15 04:50:25;;;;;;;43.92;8.35;;;9.50;99.90;;;;;;5084812;28;20140;-77
2022/05/15 04:52:51;;;;;;;35.63;8.13;;;9.60;99.90;;;;;;5096334;28;20065;-77
2022/05/15 04:55:16;;;;;;;27.88;6.50;;;9.70;99.90;;;;;;5082240;28;20048;-79
2022/05/15 04:57:43;;;;;;;32.65;7.22;;;10.00;99.90;;;;;;5079174;28;20047;-78
2022/05/15 05:00:13;;;;;;;35.22;7.03;;;10.60;99.90;;;;;;5079898;28;20055;-78
2022/05/15 05:02:39;;;;;;;23.38;6.03;;;11.10;99.90;;;;;;5084603;28;20067;-77
2022/05/15 05:05:05;;;;;;;25.67;6.18;;;11.40;99.90;;;;;;5094593;28;20125;-75
2022/05/15 05:07:31;;;;;;;31.45;6.78;;;11.60;99.90;;;;;;5109161;28;20234;-75
2022/05/15 05:09:57;;;;;;;23.70;5.90;;;11.80;99.90;;;;;;5084746;28;20138;-76
2022/05/15 05:12:23;;;;;;;37.10;7.32;;;12.10;99.90;;;;;;5101359;28;20534;-77
2022/05/15 05:14:49;;;;;;;32.83;7.47;;;12.30;99.90;;;;;;5098147;28;20048;-77
2022/05/15 05:17:15;;;;;;;28.77;6.55;;;12.50;99.90;;;;;;5087118;28;20050;-77
2022/05/15 05:19:41;;;;;;;29.75;6.32;;;12.40;99.90;;;;;;5093651;28;20051;-77
2022/05/15 05:22:07;;;;;;;24.58;6.68;;;12.60;99.90;;;;;;5075969;28;20048;-79
2022/05/15 05:24:33;;;;;;;31.52;7.05;;;12.70;99.90;;;;;;5097136;28;20051;-79
2022/05/15 05:26:59;;;;;;;31.00;6.45;;;12.70;99.90;;;;;;5092667;28;20047;-77
2022/05/15 05:29:26;;;;;;;31.23;6.75;;;12.70;99.90;;;;;;5077888;28;20040;-77
2022/05/15 05:31:52;;;;;;;28.23;6.88;;;12.80;99.90;;;;;;5100004;28;20048;-79
2022/05/15 05:34:17;;;;;;;34.88;6.38;;;12.80;99.90;;;;;;5090774;28;20493;-78
2022/05/15 05:36:43;;;;;;;29.83;6.38;;;12.80;99.90;;;;;;5090576;28;20047;-79
2022/05/15 05:39:09;;;;;;;26.65;6.20;;;13.20;99.90;;;;;;5088353;28;20073;-77
2022/05/15 05:41:35;;;;;;;33.55;6.20;;;13.10;99.90;;;;;;5082259;28;20090;-79
2022/05/15 05:44:00;;;;;;;32.65;6.10;;;13.20;99.90;;;;;;5089938;28;20101;-78
2022/05/15 05:46:27;;;;;;;29.35;6.60;;;13.10;99.90;;;;;;5083559;28;20043;-78
2022/05/15 05:48:54;;;;;;;34.50;6.40;;;13.10;99.90;;;;;;5099123;28;20044;-78
2022/05/15 05:51:21;;;;;;;28.15;7.03;;;12.70;99.90;;;;;;5096699;28;20104;-77
2022/05/15 05:53:47;;;;;;;31.25;6.22;;;12.60;99.90;;;;;;5093799;28;20044;-79
2022/05/15 05:56:13;;;;;;;28.83;6.57;;;12.50;99.90;;;;;;5100298;28;20064;-78
2022/05/15 05:58:41;;;;;;;32.45;6.28;;;12.50;99.90;;;;;;5091890;28;20075;-78
2022/05/15 06:01:07;;;;;;;30.25;6.93;;;12.40;99.90;;;;;;5099408;28;20052;-77
2022/05/15 06:06:18;;;;;;;25.52;5.97;;;12.40;99.90;;;;;;5107508;28;20494;-77
2022/05/15 06:08:44;;;;;;;23.45;6.05;;;12.40;99.90;;;;;;5079962;28;20490;-76
2022/05/15 06:11:11;;;;;;;30.90;6.78;;;12.50;99.90;;;;;;5105571;28;20031;-79
2022/05/15 06:13:36;;;;;;;31.55;6.18;;;12.40;99.90;;;;;;5078079;28;20710;-78
2022/05/15 06:16:02;;;;;;;27.48;6.20;;;12.40;99.90;;;;;;5077096;28;20117;-78
2022/05/15 06:18:28;;;;;;;27.75;6.00;;;12.50;99.90;;;;;;5096034;28;20041;-76
2022/05/15 06:20:54;;;;;;;24.90;6.03;;;12.60;99.90;;;;;;5099099;28;20067;-79
2022/05/15 06:23:19;;;;;;;29.25;6.13;;;12.60;99.90;;;;;;5106256;28;20052;-79
2022/05/15 06:26:04;;;;;;;31.40;5.97;;;12.60;99.90;;;;;;5076916;28;20048;-77
2022/05/15 06:28:30;;;;;;;31.20;6.25;;;12.70;99.90;;;;;;5088618;28;20064;-78
2022/05/15 06:30:56;;;;;;;30.85;6.53;;;12.80;99.90;;;;;;5115271;28;20092;-74
2022/05/15 06:33:21;;;;;;;26.65;6.07;;;12.90;99.90;;;;;;5113690;28;20069;-72
2022/05/15 06:35:47;;;;;;;35.70;6.57;;;13.00;99.90;;;;;;5094770;28;20055;-74
2022/05/15 06:38:13;;;;;;;29.80;6.25;;;13.20;99.90;;;;;;5091213;28;20458;-73
2022/05/15 06:40:38;;;;;;;28.95;6.15;;;13.40;99.90;;;;;;5088854;28;20078;-74
2022/05/15 06:43:05;;;;;;;31.90;6.40;;;13.70;99.90;;;;;;5071024;28;20398;-72
2022/05/15 06:45:30;;;;;;;27.15;6.00;;;13.80;99.90;;;;;;5071524;28;20162;-72
2022/05/15 06:47:56;;;;;;;27.30;6.38;;;14.10;99.90;;;;;;5073854;28;20537;-73
2022/05/15 06:50:22;;;;;;;27.60;5.78;;;14.10;99.90;;;;;;5087491;28;20059;-72
2022/05/15 06:52:47;;;;;;;29.30;6.40;;;14.10;99.90;;;;;;5087407;28;21231;-74
2022/05/15 06:55:16;;;;;;;27.08;5.40;;;14.30;99.90;;;;;;5091476;28;20414;-72
2022/05/15 06:57:43;;;;;;;31.77;5.70;;;14.50;99.90;;;;;;5087428;28;20040;-73
2022/05/15 07:00:30;;;;;;;25.80;5.82;;;14.40;99.90;;;;;;5080477;28;20076;-75
2022/05/15 07:02:55;;;;;;;30.88;6.50;;;14.70;99.90;;;;;;5074011;28;20044;-73
2022/05/15 07:05:24;;;;;;;27.40;6.43;;;14.80;99.90;;;;;;5089019;28;20497;-74
2022/05/15 07:07:52;;;;;;;29.52;6.45;;;14.80;99.90;;;;;;5088463;28;20511;-74
2022/05/15 07:10:18;;;;;;;27.35;6.20;;;14.80;99.90;;;;;;5069242;28;20059;-72
2022/05/15 07:12:44;;;;;;;27.90;5.93;;;15.10;99.90;;;;;;5070688;28;20083;-73
2022/05/15 07:15:11;;;;;;;24.73;5.30;;;15.20;99.90;;;;;;5068429;28;20032;-73
2022/05/15 07:17:36;;;;;;;25.92;5.60;;;15.20;99.90;;;;;;5084768;28;20032;-73
2022/05/15 07:20:03;;;;;;;28.27;5.63;;;15.40;99.90;;;;;;5087523;28;20104;-72
2022/05/15 07:22:29;;;;;;;25.83;4.82;;;15.60;99.90;;;;;;5068405;28;20044;-73
2022/05/15 07:24:56;;;;;;;21.05;4.68;;;15.50;99.90;;;;;;5070330;28;20676;-73
2022/05/15 07:27:22;;;;;;;22.13;4.88;;;15.40;99.90;;;;;;5068961;28;20043;-72
2022/05/15 07:29:47;;;;;;;28.30;5.35;;;15.60;99.90;;;;;;5088930;28;20054;-72
2022/05/15 07:32:13;;;;;;;24.73;4.70;;;15.50;99.90;;;;;;5068573;28;20028;-73
2022/05/15 07:34:40;;;;;;;22.48;5.30;;;15.60;99.90;;;;;;5088496;28;20054;-73
2022/05/15 07:37:06;;;;;;;21.65;4.18;;;15.60;99.90;;;;;;5087256;28;20036;-74
2022/05/15 07:39:32;;;;;;;29.00;5.60;;;15.60;99.90;;;;;;5086428;28;20059;-74
2022/05/15 07:41:58;;;;;;;24.75;5.00;;;15.70;99.90;;;;;;5087346;28;20076;-73
2022/05/15 07:44:24;;;;;;;23.48;5.15;;;15.70;99.90;;;;;;5078217;28;20055;-74
2022/05/15 07:46:49;;;;;;;28.08;5.53;;;15.80;99.90;;;;;;5091808;28;20051;-73
2022/05/15 07:49:16;;;;;;;31.70;5.88;;;15.80;99.90;;;;;;5069547;28;20099;-74
2022/05/15 07:51:44;;;;;;;21.00;5.90;;;15.80;99.90;;;;;;5095215;28;20067;-74
2022/05/15 07:54:15;;;;;;;23.92;4.78;;;15.90;99.90;;;;;;5096430;28;20055;-74
2022/05/15 07:56:41;;;;;;;20.77;4.65;;;16.00;99.90;;;;;;5075367;28;20489;-72
2022/05/15 07:59:07;;;;;;;23.05;4.75;;;16.10;99.90;;;;;;5094638;28;20048;-73
2022/05/15 08:01:33;;;;;;;24.10;4.78;;;16.10;99.90;;;;;;5090490;28;20085;-74
2022/05/15 08:03:58;;;;;;;28.45;5.60;;;16.10;99.90;;;;;;5090694;28;20040;-75
2022/05/15 08:09:09;;;;;;;25.02;4.85;;;16.30;99.90;;;;;;5094105;28;20120;-72
2022/05/15 08:11:36;;;;;;;24.92;5.28;;;16.30;99.90;;;;;;5102588;28;20093;-74
2022/05/15 08:14:04;;;;;;;24.08;4.95;;;16.30;99.90;;;;;;5105837;28;20586;-73
2022/05/15 08:16:31;;;;;;;27.30;5.07;;;16.40;99.90;;;;;;5089228;28;20459;-73
2022/05/15 08:24:42;;;;;;;18.93;4.57;;;16.70;99.90;;;;;;5078478;28;20131;-76
2022/05/15 08:27:11;;;;;;;24.48;4.80;;;16.80;99.90;;;;;;5040490;28;20122;-77
2022/05/15 08:29:38;;;;;;;21.02;4.57;;;16.90;99.90;;;;;;5062361;28;20055;-75
2022/05/15 08:32:05;;;;;;;19.48;4.53;;;16.90;99.90;;;;;;5060731;28;20048;-74
2022/05/15 08:34:31;;;;;;;26.25;5.40;;;16.90;99.90;;;;;;5068535;28;20032;-74
2022/05/15 08:36:57;;;;;;;21.42;4.63;;;17.00;99.90;;;;;;5065281;28;20081;-74
2022/05/15 08:39:23;;;;;;;20.70;4.32;;;17.00;99.90;;;;;;5064186;28;20036;-75
2022/05/15 08:42:06;;;;;;;26.48;4.82;;;17.20;99.90;;;;;;5047195;28;20211;-73
2022/05/15 08:44:36;;;;;;;23.23;4.90;;;17.20;99.90;;;;;;5046878;28;20134;-77
2022/05/15 08:47:31;;;;;;;25.50;5.00;;;17.30;99.90;;;;;;5061827;28;20044;-73
2022/05/15 08:50:13;;;;;;;19.65;4.75;;;17.40;99.90;;;;;;5050179;28;20067;-75
2022/05/15 08:52:59;;;;;;;26.60;5.55;;;17.50;99.90;;;;;;5063472;28;20523;-73
2022/05/15 08:55:32;;;;;;;18.83;4.05;;;17.60;99.90;;;;;;5071225;28;20079;-74
2022/05/15 08:58:04;;;;;;;33.15;5.43;;;17.70;99.90;;;;;;5092204;28;20046;-70
2022/05/15 09:00:46;;;;;;;26.27;5.20;;;17.80;99.90;;;;;;5090886;28;20039;-71
2022/05/15 09:03:18;;;;;;;22.00;4.97;;;17.90;99.90;;;;;;5089693;28;20052;-74
2022/05/15 09:06:05;;;;;;;22.15;4.47;;;18.10;99.90;;;;;;5110264;27;20044;-74
2022/05/15 09:08:58;;;;;;;19.88;5.03;;;18.20;99.90;;;;;;5091427;28;20055;-73
2022/05/15 09:11:49;;;;;;;21.15;4.72;;;18.30;99.90;;;;;;5038260;28;20052;-70
2022/05/15 09:14:44;;;;;;;23.10;4.55;;;18.30;99.90;;;;;;5037196;28;20084;-74
2022/05/15 09:17:18;;;;;;;23.08;5.00;;;18.40;99.90;;;;;;5045918;28;20045;-71
2022/05/15 09:19:47;;;;;;;17.63;4.60;;;18.50;99.90;;;;;;5042602;28;20049;-72
2022/05/15 09:22:14;;;;;;;23.42;4.80;;;18.50;99.90;;;;;;5017551;28;20090;-72
2022/05/15 09:24:47;;;;;;;23.50;5.18;;;18.60;99.90;;;;;;5031978;28;21450;-74
2022/05/15 09:27:17;;;;;;;23.77;5.15;;;18.70;99.90;;;;;;5031515;28;20068;-73
2022/05/15 09:29:54;;;;;;;22.33;4.82;;;18.70;99.90;;;;;;5023270;28;20088;-72
2022/05/15 09:32:29;;;;;;;17.90;4.50;;;18.80;99.90;;;;;;5033371;28;20558;-72
2022/05/15 09:34:57;;;;;;;22.08;4.97;;;18.70;99.90;;;;;;5023461;28;20052;-71
2022/05/15 09:40:36;;;;;;;17.08;4.15;;;18.80;99.90;;;;;;5046588;28;20746;-72
2022/05/15 09:45:56;;;;;;;18.87;4.33;;;19.00;99.90;;;;;;5042390;28;20693;-72
2022/05/15 09:48:25;;;;;;;24.77;4.90;;;19.10;99.90;;;;;;5060424;28;20048;-72
2022/05/15 09:50:51;;;;;;;24.13;5.05;;;19.20;99.90;;;;;;5092953;28;20039;-71
2022/05/15 09:53:32;;;;;;;21.15;4.70;;;19.10;99.90;;;;;;5095754;28;20043;-73
2022/05/15 09:56:23;;;;;;;20.45;4.47;;;19.20;99.90;;;;;;5098820;28;20047;-73
2022/05/15 09:58:55;;;;;;;18.15;3.95;;;19.40;99.90;;;;;;5095768;28;20052;-73
2022/05/15 10:01:38;;;;;;;23.40;4.68;;;19.70;99.90;;;;;;5080030;28;20039;-73
2022/05/15 10:04:18;;;;;;;20.05;4.78;;;19.90;99.90;;;;;;5097793;28;20409;-72
2022/05/15 10:07:05;;;;;;;16.02;3.88;;;20.10;99.90;;;;;;5092328;28;20125;-73
2022/05/15 10:09:35;;;;;;;19.17;4.35;;;19.90;99.90;;;;;;5095132;28;20028;-73
2022/05/15 10:12:16;;;;;;;24.80;4.38;;;19.90;99.90;;;;;;5081751;28;20351;-71
2022/05/15 10:14:44;;;;;;;18.60;4.35;;;19.80;99.90;;;;;;5078361;28;20032;-72
2022/05/15 10:17:11;;;;;;;18.67;4.78;;;20.00;99.90;;;;;;5098137;28;20036;-75
2022/05/15 10:19:46;;;;;;;18.35;4.40;;;20.30;99.90;;;;;;5074275;28;20039;-73
2022/05/15 10:22:35;;;;;;;23.50;5.00;;;20.60;99.90;;;;;;5092569;28;20023;-73
2022/05/15 10:25:14;;;;;;;14.68;4.25;;;20.80;99.90;;;;;;5090176;28;20048;-73
2022/05/15 10:27:46;;;;;;;19.15;4.78;;;20.90;99.90;;;;;;5079888;28;20428;-73
2022/05/15 10:30:20;;;;;;;19.38;4.28;;;20.90;99.90;;;;;;5100668;28;20036;-73
2022/05/15 10:33:05;;;;;;;15.55;3.67;;;21.00;99.90;;;;;;5094009;28;20047;-73
2022/05/15 10:35:39;;;;;;;16.85;4.28;;;20.90;99.90;;;;;;5114662;27;20066;-73
2022/05/15 10:38:22;;;;;;;16.92;4.00;;;20.80;99.90;;;;;;5099941;28;20126;-72
2022/05/15 10:41:31;;;;;;;15.68;3.88;;;20.80;99.90;;;;;;5092547;28;20431;-71
2022/05/15 10:44:29;;;;;;;16.42;3.55;;;20.90;99.90;;;;;;5110320;28;20483;-72
2022/05/15 10:47:00;;;;;;;22.80;4.50;;;20.80;99.90;;;;;;5099535;28;20044;-73
2022/05/15 10:49:39;;;;;;;19.25;4.63;;;21.20;99.90;;;;;;5089948;28;20553;-72
2022/05/15 10:52:32;;;;;;;18.27;3.97;;;21.30;99.90;;;;;;5081648;28;20362;-72
2022/05/15 10:58:23;;;;;;;21.63;4.68;;;21.50;99.90;;;;;;5097206;28;20035;-72
2022/05/15 11:01:10;;;;;;;14.65;3.95;;;21.30;99.90;;;;;;5044911;28;20063;-74
2022/05/15 11:04:07;;;;;;;20.13;4.30;;;21.70;99.90;;;;;;5035779;28;20040;-72
2022/05/15 11:06:45;;;;;;;16.00;3.92;;;22.10;99.80;;;;;;5043663;28;20151;-76
2022/05/15 11:09:30;;;;;;;17.25;4.20;;;22.20;99.70;;;;;;5023790;28;20037;-80
2022/05/15 11:12:01;;;;;;;15.35;3.58;;;21.90;99.50;;;;;;5038900;28;20395;-76
2022/05/15 11:14:48;;;;;;;14.45;3.80;;;21.70;99.90;;;;;;5051489;28;20154;-77
2022/05/15 11:17:23;;;;;;;15.80;4.00;;;22.10;99.90;;;;;;5052063;28;20040;-76
2022/05/15 11:19:51;;;;;;;12.25;3.20;;;22.10;99.50;;;;;;5032140;28;20048;-76
2022/05/15 11:22:42;;;;;;;20.98;4.38;;;22.60;99.40;;;;;;5037486;28;20040;-76
2022/05/15 11:25:17;;;;;;;18.98;3.78;;;22.60;98.20;;;;;;5033618;28;20055;-77
2022/05/15 11:27:45;;;;;;;12.85;3.55;;;22.60;98.60;;;;;;5031429;28;20079;-75
2022/05/15 11:30:24;;;;;;;12.90;3.95;;;22.90;99.00;;;;;;5050919;28;20070;-75
2022/05/15 11:32:53;;;;;;;15.57;3.97;;;22.70;97.10;;;;;;5034894;28;20036;-75
2022/05/15 11:35:18;;;;;;;18.67;4.05;;;22.80;95.40;;;;;;5050137;28;20097;-76
2022/05/15 11:37:56;;;;;;;14.60;4.05;;;23.30;96.90;;;;;;5053654;28;20043;-76
2022/05/15 11:40:42;;;;;;;12.70;3.58;;;23.20;96.10;;;;;;5089881;28;20047;-76
2022/05/15 11:43:26;;;;;;;14.38;3.88;;;23.40;96.70;;;;;;5092072;28;20032;-76
2022/05/15 11:45:58;;;;;;;15.82;3.97;;;23.50;96.70;;;;;;5088849;28;20050;-76
2022/05/15 11:48:25;;;;;;;10.70;3.20;;;24.00;97.00;;;;;;5093588;28;20036;-76
2022/05/15 11:51:01;;;;;;;15.40;3.47;;;24.10;96.30;;;;;;5109661;28;20569;-76
2022/05/15 11:53:31;;;;;;;11.50;3.55;;;24.30;95.70;;;;;;5096114;28;20042;-76
2022/05/15 11:55:58;;;;;;;14.80;3.75;;;24.40;95.10;;;;;;5089259;28;20051;-76
2022/05/15 11:58:36;;;;;;;14.32;3.85;;;25.00;94.10;;;;;;5072291;28;20123;-76
2022/05/15 12:01:26;;;;;;;14.82;3.67;;;25.20;93.50;;;;;;5073366;28;20135;-76
2022/05/15 12:03:57;;;;;;;14.90;3.88;;;24.30;92.90;;;;;;5074232;28;20078;-74
2022/05/15 12:06:32;;;;;;;12.57;3.33;;;24.00;93.40;;;;;;5092964;28;20051;-74
2022/05/15 12:09:16;;;;;;;12.02;3.42;;;23.60;92.40;;;;;;5097622;28;20036;-74
2022/05/15 12:11:54;;;;;;;12.57;3.35;;;23.80;92.20;;;;;;5073835;28;20549;-76
2022/05/15 12:14:22;;;;;;;11.90;3.28;;;23.80;92.40;;;;;;5070977;28;20048;-76
2022/05/15 12:17:00;;;;;;;17.38;3.25;;;23.80;92.90;;;;;;5093255;28;20130;-77
2022/05/15 12:19:35;;;;;;;12.95;3.15;;;24.00;93.10;;;;;;5091356;28;20036;-76
2022/05/15 12:22:13;;;;;;;12.40;3.65;;;24.10;92.10;;;;;;5072207;28;20462;-76
2022/05/15 12:24:43;;;;;;;10.00;2.97;;;24.10;91.60;;;;;;5074190;28;20036;-77
2022/05/15 12:27:18;;;;;;;10.77;2.70;;;23.90;91.40;;;;;;5072356;28;20040;-76
2022/05/15 12:30:01;;;;;;;11.82;3.38;;;24.10;91.70;;;;;;5075596;28;20040;-76
2022/05/15 12:32:52;;;;;;;13.57;3.50;;;24.50;90.90;;;;;;5089263;28;20066;-76
2022/05/15 12:35:30;;;;;;;12.13;3.10;;;24.30;90.70;;;;;;5074435;28;20360;-77
2022/05/15 12:37:58;;;;;;;9.95;3.10;;;24.40;91.00;;;;;;5087484;28;20040;-76
2022/05/15 12:40:40;;;;;;;10.43;3.35;;;25.10;90.60;;;;;;5074207;28;20040;-76
2022/05/15 12:43:26;;;;;;;11.15;3.00;;;25.30;89.00;;;;;;5073918;28;20050;-77
2022/05/15 12:45:52;;;;;;;9.95;3.00;;;25.30;88.20;;;;;;5094191;28;20048;-76
2022/05/15 12:48:19;;;;;;;11.43;2.85;;;25.60;89.00;;;;;;5075614;28;20040;-75
2022/05/15 12:51:09;;;;;;;11.32;3.20;;;25.40;87.10;;;;;;5105792;28;20043;-75
2022/05/15 12:53:45;;;;;;;9.65;2.92;;;25.70;87.10;;;;;;5107126;28;20088;-77
2022/05/15 12:56:24;;;;;;;9.43;2.92;;;26.00;84.70;;;;;;5075951;28;20047;-76
2022/05/15 12:58:54;;;;;;;10.35;3.03;;;26.10;82.30;;;;;;5077164;28;20059;-77
2022/05/15 13:01:23;;;;;;;8.65;2.88;;;25.80;84.60;;;;;;5104226;28;20138;-77
2022/05/15 13:03:53;;;;;;;10.82;3.35;;;26.10;85.70;;;;;;5080399;28;20139;-77
2022/05/15 13:06:21;;;;;;;10.77;3.03;;;26.30;85.00;;;;;;5082491;28;20043;-77
2022/05/15 13:08:49;;;;;;;12.00;3.33;;;26.50;82.10;;;;;;5095691;28;20035;-77
2022/05/15 13:11:23;;;;;;;13.10;3.15;;;26.40;81.10;;;;;;5112578;28;20039;-77
2022/05/15 13:13:53;;;;;;;11.82;3.38;;;25.90;81.00;;;;;;5105978;28;20043;-77
2022/05/15 13:16:22;;;;;;;8.95;3.50;;;25.70;81.60;;;;;;5112485;28;20475;-77
2022/05/15 13:18:50;;;;;;;9.40;3.22;;;25.70;82.90;;;;;;5088109;28;20067;-76
2022/05/15 13:21:31;;;;;;;9.63;2.92;;;25.90;82.70;;;;;;5092072;28;20047;-77